Time;durP1;ratioP1;P1;durP2;ratioP2;P2;SDS_P1;SDS_P2;PMS_P1;PMS_P2;Temp;Humidity;BMP_temperature;BMP_pressure;BME280_temperature;BME280_humidity;BME280_pressure;Samples;Min_cycle;Max_cycle;Signal;HPM_P1;HPM_P2
2021/10/31 00:01:50;;;;;;;23.95;16.02;;;10.60;99.90;;;;;;4955735;28;20312;-67
2021/10/31 00:04:17;;;;;;;21.30;15.73;;;10.60;99.90;;;;;;4948307;29;20490;-67
2021/10/31 00:06:45;;;;;;;26.65;18.38;;;10.60;99.90;;;;;;4955415;29;20039;-67
2021/10/31 00:09:12;;;;;;;23.58;16.63;;;10.60;99.90;;;;;;4956780;28;20047;-67
2021/10/31 00:11:40;;;;;;;24.38;17.45;;;10.60;99.90;;;;;;4955539;28;20043;-67
2021/10/31 00:14:07;;;;;;;22.85;15.82;;;10.70;99.90;;;;;;4955328;29;20039;-66
2021/10/31 00:16:35;;;;;;;23.42;16.88;;;10.70;99.90;;;;;;4955388;28;20053;-66
2021/10/31 00:19:02;;;;;;;22.55;16.23;;;10.60;99.90;;;;;;4955655;29;20414;-66
2021/10/31 00:21:30;;;;;;;22.25;16.27;;;10.60;99.90;;;;;;4955709;28;20047;-66
2021/10/31 00:23:57;;;;;;;23.00;16.17;;;10.60;99.90;;;;;;4955202;28;20049;-67
2021/10/31 00:26:25;;;;;;;21.17;16.15;;;10.60;99.90;;;;;;4955247;29;20442;-67
2021/10/31 00:28:52;;;;;;;23.60;16.50;;;10.60;99.90;;;;;;4955198;28;20039;-67
2021/10/31 00:31:19;;;;;;;23.23;16.88;;;10.50;99.90;;;;;;4955356;29;20046;-67
2021/10/31 00:33:47;;;;;;;25.67;17.63;;;10.50;99.90;;;;;;4948085;28;20054;-67
2021/10/31 00:36:14;;;;;;;29.58;18.63;;;10.50;99.90;;;;;;4948508;29;20070;-67
2021/10/31 00:38:41;;;;;;;24.45;16.45;;;10.50;99.90;;;;;;4949742;28;20410;-67
2021/10/31 00:41:09;;;;;;;25.55;17.23;;;10.50;99.90;;;;;;4948002;29;20049;-67
2021/10/31 00:43:36;;;;;;;24.90;17.05;;;10.50;99.90;;;;;;4949059;29;20050;-67
2021/10/31 00:46:03;;;;;;;23.58;16.15;;;10.50;99.90;;;;;;4954356;28;20075;-67
2021/10/31 00:48:31;;;;;;;22.63;16.38;;;10.50;99.90;;;;;;4945902;28;20063;-67
2021/10/31 00:50:58;;;;;;;23.70;17.00;;;10.50;99.90;;;;;;4957037;28;20035;-67
2021/10/31 00:53:26;;;;;;;25.63;17.40;;;10.60;99.90;;;;;;4950201;28;20043;-67
2021/10/31 00:55:53;;;;;;;29.83;19.23;;;10.60;99.90;;;;;;4949019;28;20046;-67
2021/10/31 00:58:21;;;;;;;23.30;16.05;;;10.70;99.90;;;;;;4948792;29;20125;-67
2021/10/31 01:00:48;;;;;;;24.88;16.27;;;10.70;99.90;;;;;;4948851;29;20523;-67
2021/10/31 01:03:16;;;;;;;24.98;16.50;;;10.70;99.90;;;;;;4948780;28;20125;-67
2021/10/31 01:05:51;;;;;;;25.33;17.08;;;10.70;99.90;;;;;;4948757;29;20039;-67
2021/10/31 01:08:43;;;;;;;21.35;15.48;;;10.80;99.90;;;;;;4948749;28;20049;-67
2021/10/31 01:11:39;;;;;;;22.88;16.80;;;10.80;99.90;;;;;;4946459;29;20126;-67
2021/10/31 01:14:35;;;;;;;22.73;15.63;;;10.80;99.90;;;;;;4827395;29;20396;-67
2021/10/31 01:17:15;;;;;;;20.67;14.65;;;10.80;99.90;;;;;;4865626;29;20046;-67
2021/10/31 01:20:13;;;;;;;22.05;16.27;;;10.80;99.90;;;;;;4847207;29;20105;-67
2021/10/31 01:22:55;;;;;;;21.77;15.70;;;10.80;99.90;;;;;;4817987;29;20058;-67
2021/10/31 01:25:56;;;;;;;22.50;15.48;;;10.80;99.90;;;;;;4805902;29;20081;-67
2021/10/31 01:29:00;;;;;;;21.85;15.70;;;10.80;99.90;;;;;;4821073;29;20073;-67
2021/10/31 01:31:55;;;;;;;22.48;16.00;;;10.80;99.90;;;;;;4820976;29;20592;-67
2021/10/31 01:34:49;;;;;;;23.40;15.90;;;10.90;99.90;;;;;;4816359;29;20149;-67
2021/10/31 01:37:29;;;;;;;21.98;15.43;;;10.90;99.90;;;;;;4820656;29;20058;-67
2021/10/31 01:40:11;;;;;;;21.85;15.23;;;10.90;99.90;;;;;;4820722;29;20055;-67
2021/10/31 01:43:08;;;;;;;21.65;15.10;;;10.90;99.90;;;;;;4820809;29;20173;-67
2021/10/31 01:45:54;;;;;;;21.90;15.20;;;10.80;99.90;;;;;;4805463;29;20077;-67
2021/10/31 01:48:53;;;;;;;20.55;15.13;;;10.90;99.90;;;;;;4820487;29;20525;-67
2021/10/31 01:51:43;;;;;;;18.65;13.50;;;10.90;99.90;;;;;;4789374;29;20579;-67
2021/10/31 01:54:19;;;;;;;21.60;15.02;;;10.90;99.90;;;;;;4794859;29;20051;-67
2021/10/31 01:56:58;;;;;;;21.98;15.38;;;10.90;99.90;;;;;;4802289;29;20051;-67
2021/10/31 01:59:37;;;;;;;21.30;14.38;;;10.90;99.90;;;;;;4823668;29;20568;-67
2021/10/31 02:02:07;;;;;;;23.17;14.93;;;10.90;99.90;;;;;;4879648;29;20049;-67
2021/10/31 02:04:37;;;;;;;21.50;14.90;;;10.90;99.90;;;;;;4882148;29;20450;-67
2021/10/31 02:07:06;;;;;;;20.08;14.60;;;10.90;99.90;;;;;;4872572;29;20045;-67
2021/10/31 02:09:35;;;;;;;20.50;14.00;;;10.90;99.90;;;;;;4887916;29;20057;-67
2021/10/31 02:12:05;;;;;;;21.30;15.10;;;10.90;99.90;;;;;;4879119;29;20572;-67
2021/10/31 02:14:35;;;;;;;21.60;15.57;;;10.90;99.90;;;;;;4888083;29;20059;-67
2021/10/31 02:17:03;;;;;;;21.77;15.23;;;11.00;99.90;;;;;;4878454;29;20044;-67
2021/10/31 02:19:37;;;;;;;19.98;14.02;;;11.00;99.90;;;;;;4885288;29;20180;-67
2021/10/31 02:22:08;;;;;;;20.55;14.20;;;11.00;99.90;;;;;;4882410;29;20113;-67
2021/10/31 02:24:36;;;;;;;18.45;13.55;;;11.00;99.90;;;;;;4886797;29;20393;-67
2021/10/31 02:27:15;;;;;;;19.75;13.77;;;11.00;99.90;;;;;;4896508;29;20051;-67
2021/10/31 02:29:47;;;;;;;20.23;14.57;;;11.00;99.90;;;;;;4945952;29;20050;-67
2021/10/31 02:32:15;;;;;;;20.63;14.35;;;11.00;99.90;;;;;;4943678;28;20415;-67
2021/10/31 02:34:43;;;;;;;19.30;13.75;;;10.90;99.90;;;;;;4950994;29;20040;-67
2021/10/31 02:37:10;;;;;;;19.13;14.57;;;10.90;99.90;;;;;;4951141;28;20561;-67
2021/10/31 02:39:38;;;;;;;20.08;14.05;;;10.90;99.90;;;;;;4948570;29;20406;-67
2021/10/31 02:42:05;;;;;;;17.20;12.93;;;10.80;99.90;;;;;;4946386;28;20387;-67
2021/10/31 02:44:33;;;;;;;18.38;13.30;;;10.80;99.90;;;;;;4948046;28;20054;-67
2021/10/31 02:47:01;;;;;;;21.17;13.80;;;10.70;99.90;;;;;;4947349;28;20328;-67
2021/10/31 02:49:29;;;;;;;19.73;13.55;;;10.70;99.90;;;;;;4942092;28;20065;-67
2021/10/31 02:52:03;;;;;;;19.38;12.90;;;10.70;99.90;;;;;;4945043;28;20039;-67
2021/10/31 02:54:38;;;;;;;18.80;12.63;;;10.70;99.90;;;;;;4950680;28;20113;-67
2021/10/31 02:57:23;;;;;;;20.15;13.32;;;10.70;99.90;;;;;;4943570;28;20055;-67
2021/10/31 02:59:54;;;;;;;18.02;12.82;;;10.70;99.90;;;;;;4944319;28;20498;-67
2021/10/31 03:02:21;;;;;;;18.92;13.18;;;10.70;99.90;;;;;;4949605;29;20047;-67
2021/10/31 03:04:50;;;;;;;16.98;12.65;;;10.70;99.90;;;;;;4952248;28;20047;-67
2021/10/31 03:07:20;;;;;;;17.30;12.07;;;10.70;99.90;;;;;;4946887;29;20046;-67
2021/10/31 03:09:49;;;;;;;18.67;12.27;;;10.70;99.90;;;;;;4952160;29;20058;-67
2021/10/31 03:12:17;;;;;;;17.88;11.98;;;10.70;99.90;;;;;;4952227;29;20044;-67
2021/10/31 03:14:45;;;;;;;18.90;12.00;;;10.70;99.90;;;;;;4951090;28;20036;-67
2021/10/31 03:17:13;;;;;;;18.33;12.32;;;10.70;99.90;;;;;;4954567;29;20057;-67
2021/10/31 03:19:42;;;;;;;18.48;12.02;;;10.70;99.90;;;;;;4955457;29;20120;-67
2021/10/31 03:22:09;;;;;;;17.92;11.25;;;10.70;99.90;;;;;;4955051;29;20043;-67
2021/10/31 03:24:37;;;;;;;16.95;11.82;;;10.70;99.90;;;;;;4968138;28;20406;-67
2021/10/31 03:27:04;;;;;;;16.35;11.18;;;10.70;99.90;;;;;;4940421;29;20055;-67
2021/10/31 03:29:32;;;;;;;15.23;11.40;;;10.60;99.90;;;;;;4956418;28;20058;-67
2021/10/31 03:32:00;;;;;;;15.35;11.45;;;10.60;99.90;;;;;;4956515;29;20394;-67
2021/10/31 03:34:27;;;;;;;15.10;10.93;;;10.50;99.90;;;;;;4955475;29;20046;-67
2021/10/31 03:36:55;;;;;;;15.10;10.70;;;10.40;99.90;;;;;;4956603;28;20054;-67
2021/10/31 03:39:22;;;;;;;19.30;12.07;;;10.30;99.90;;;;;;4954971;28;20059;-67
2021/10/31 03:41:49;;;;;;;18.35;12.13;;;10.20;99.90;;;;;;4956386;28;20043;-67
2021/10/31 03:44:19;;;;;;;17.02;11.80;;;10.10;99.90;;;;;;4955026;28;20421;-67
2021/10/31 03:46:46;;;;;;;16.13;11.60;;;10.10;99.90;;;;;;4957075;28;20039;-67
2021/10/31 03:49:15;;;;;;;15.32;11.57;;;9.90;99.90;;;;;;4954749;29;20050;-67
2021/10/31 03:51:43;;;;;;;16.80;11.60;;;9.90;99.90;;;;;;4955110;29;20035;-66
2021/10/31 03:54:11;;;;;;;17.48;12.02;;;9.90;99.90;;;;;;4941552;29;20047;-66
2021/10/31 03:56:39;;;;;;;18.40;12.80;;;9.80;99.90;;;;;;4955525;29;20485;-66
2021/10/31 03:59:06;;;;;;;21.02;15.25;;;9.70;99.90;;;;;;4958825;28;20062;-66
2021/10/31 04:01:33;;;;;;;19.30;13.45;;;9.70;99.90;;;;;;4956029;28;20595;-66
2021/10/31 04:04:02;;;;;;;18.35;12.50;;;9.60;99.90;;;;;;4954126;29;20553;-66
2021/10/31 04:06:29;;;;;;;16.23;11.90;;;9.60;99.90;;;;;;4953868;28;20051;-66
2021/10/31 04:08:56;;;;;;;21.00;13.55;;;9.50;99.90;;;;;;4954231;28;20050;-66
2021/10/31 04:11:24;;;;;;;18.58;12.60;;;9.50;99.90;;;;;;4954389;29;20418;-66
2021/10/31 04:13:51;;;;;;;21.67;14.35;;;9.50;99.90;;;;;;4955455;28;20073;-66
2021/10/31 04:16:18;;;;;;;20.90;13.80;;;9.40;99.90;;;;;;4954035;29;20047;-66
2021/10/31 04:18:46;;;;;;;24.33;15.18;;;9.40;99.90;;;;;;4955157;29;20078;-66
2021/10/31 04:21:13;;;;;;;21.08;14.30;;;9.50;99.90;;;;;;4954657;28;20047;-67
2021/10/31 04:23:40;;;;;;;19.00;13.77;;;9.40;99.90;;;;;;4954855;29;20040;-66
2021/10/31 04:26:08;;;;;;;21.00;14.23;;;9.40;99.90;;;;;;4955707;28;20383;-67
2021/10/31 04:28:35;;;;;;;19.60;14.27;;;9.40;99.90;;;;;;4948911;28;20032;-66
2021/10/31 04:31:02;;;;;;;21.52;14.80;;;9.40;99.90;;;;;;4945259;29;20087;-66
2021/10/31 04:33:31;;;;;;;21.40;14.50;;;9.40;99.90;;;;;;4942598;28;20095;-66
2021/10/31 04:35:58;;;;;;;21.98;14.88;;;9.40;99.90;;;;;;4946945;28;20404;-67
2021/10/31 04:38:29;;;;;;;20.80;14.02;;;9.30;99.90;;;;;;4941057;29;20098;-66
2021/10/31 04:40:58;;;;;;;20.75;13.93;;;9.30;99.90;;;;;;4952874;29;20574;-66
2021/10/31 04:43:27;;;;;;;22.60;15.43;;;9.30;99.90;;;;;;4952761;29;20039;-66
2021/10/31 04:45:54;;;;;;;30.95;20.17;;;9.30;99.90;;;;;;4953218;28;20047;-67
2021/10/31 04:48:23;;;;;;;26.88;18.48;;;9.20;99.90;;;;;;4953086;29;20066;-67
2021/10/31 04:50:52;;;;;;;25.20;14.75;;;9.20;99.90;;;;;;4955299;29;20410;-67
2021/10/31 04:53:20;;;;;;;20.25;14.70;;;9.10;99.90;;;;;;4955321;28;20377;-66
2021/10/31 04:55:47;;;;;;;22.63;15.25;;;9.10;99.90;;;;;;4953318;28;20066;-67
2021/10/31 04:58:15;;;;;;;24.85;16.02;;;9.10;99.90;;;;;;4959444;28;20043;-66
2021/10/31 05:00:42;;;;;;;23.40;15.35;;;9.10;99.90;;;;;;4947079;28;20540;-68
2021/10/31 05:03:10;;;;;;;22.75;15.65;;;9.10;99.90;;;;;;4946861;28;20083;-68
2021/10/31 05:05:37;;;;;;;22.58;16.23;;;9.10;99.90;;;;;;4953647;28;20142;-66
2021/10/31 05:08:05;;;;;;;22.50;15.55;;;9.10;99.90;;;;;;4945506;29;20394;-66
2021/10/31 05:10:33;;;;;;;20.83;15.40;;;9.00;99.90;;;;;;4953594;29;20047;-66
2021/10/31 05:13:00;;;;;;;22.52;16.10;;;9.10;99.90;;;;;;4954374;28;20414;-66
2021/10/31 05:15:27;;;;;;;30.60;19.95;;;9.10;99.90;;;;;;4954464;28;20047;-66
2021/10/31 05:17:56;;;;;;;27.02;18.80;;;9.10;99.90;;;;;;4961720;28;20043;-66
2021/10/31 05:20:23;;;;;;;24.70;17.95;;;9.10;99.90;;;;;;4953425;28;20051;-67
2021/10/31 05:22:50;;;;;;;29.13;19.08;;;9.10;99.90;;;;;;4954276;29;20490;-66
2021/10/31 05:25:18;;;;;;;23.17;16.55;;;9.10;99.90;;;;;;4953115;28;20501;-67
2021/10/31 05:27:45;;;;;;;28.75;19.02;;;9.10;99.90;;;;;;4953743;28;20415;-66
2021/10/31 05:30:13;;;;;;;31.02;20.25;;;9.10;99.90;;;;;;4950613;28;20043;-67
2021/10/31 05:32:42;;;;;;;26.80;17.98;;;9.10;99.90;;;;;;4953592;28;20132;-66
2021/10/31 05:35:11;;;;;;;22.27;15.93;;;9.10;99.90;;;;;;4953637;28;20049;-66
2021/10/31 05:37:45;;;;;;;22.50;15.45;;;9.10;99.90;;;;;;4952874;28;20047;-66
2021/10/31 05:40:16;;;;;;;23.60;16.33;;;9.10;99.90;;;;;;4954091;29;20647;-66
2021/10/31 05:42:44;;;;;;;21.93;16.03;;;9.10;99.90;;;;;;4950675;29;20048;-66
2021/10/31 05:45:11;;;;;;;27.30;18.38;;;9.10;99.90;;;;;;4948308;28;20047;-66
2021/10/31 05:47:41;;;;;;;27.67;18.77;;;9.10;99.90;;;;;;4952364;29;20043;-67
2021/10/31 05:50:11;;;;;;;24.63;18.08;;;9.10;99.90;;;;;;4951957;29;20047;-67
2021/10/31 05:52:40;;;;;;;26.83;18.27;;;9.20;99.90;;;;;;4954486;29;20043;-67
2021/10/31 05:55:09;;;;;;;25.85;17.08;;;9.10;99.90;;;;;;4953030;28;20050;-67
2021/10/31 05:57:37;;;;;;;22.70;16.08;;;9.10;99.90;;;;;;4953140;29;20046;-67
2021/10/31 06:00:08;;;;;;;24.52;15.98;;;9.00;99.90;;;;;;4953453;28;20098;-67
2021/10/31 06:02:43;;;;;;;25.15;17.13;;;9.00;99.90;;;;;;4953454;28;20055;-67
2021/10/31 06:05:12;;;;;;;24.02;16.75;;;9.00;99.90;;;;;;4940240;29;20083;-67
2021/10/31 06:07:41;;;;;;;23.25;16.88;;;9.00;99.90;;;;;;4951565;29;20043;-67
2021/10/31 06:10:10;;;;;;;23.27;17.08;;;9.00;99.90;;;;;;4952698;29;20472;-67
2021/10/31 06:12:47;;;;;;;24.42;16.65;;;9.00;99.90;;;;;;4950991;29;20047;-67
2021/10/31 06:15:20;;;;;;;25.90;16.40;;;9.00;99.90;;;;;;4951141;29;20135;-67
2021/10/31 06:17:47;;;;;;;25.48;16.60;;;9.00;99.90;;;;;;4952828;28;20055;-67
2021/10/31 06:20:16;;;;;;;22.83;16.02;;;9.00;99.90;;;;;;4953619;28;20051;-67
2021/10/31 06:22:43;;;;;;;23.55;16.27;;;9.00;99.90;;;;;;4952619;29;20055;-67
2021/10/31 06:25:11;;;;;;;26.00;17.25;;;9.00;99.90;;;;;;4952291;28;20055;-67
2021/10/31 06:27:38;;;;;;;24.77;16.23;;;9.10;99.90;;;;;;4951494;28;20512;-67
2021/10/31 06:30:07;;;;;;;23.27;16.58;;;9.10;99.90;;;;;;4950009;28;20045;-67
2021/10/31 06:32:34;;;;;;;33.78;22.67;;;9.20;99.90;;;;;;4951775;29;20040;-66
2021/10/31 06:35:03;;;;;;;29.10;19.55;;;9.20;99.90;;;;;;4936028;29;20062;-66
2021/10/31 06:37:30;;;;;;;23.27;17.27;;;9.30;99.90;;;;;;4934760;29;20051;-66
2021/10/31 06:39:57;;;;;;;23.52;15.75;;;9.40;99.90;;;;;;4952333;29;20051;-67
2021/10/31 06:42:26;;;;;;;23.83;16.40;;;9.40;99.90;;;;;;4958232;28;20074;-66
2021/10/31 06:44:54;;;;;;;21.92;15.63;;;9.40;99.90;;;;;;4949908;28;20419;-66
2021/10/31 06:47:22;;;;;;;25.30;17.45;;;9.50;99.90;;;;;;4952284;29;20086;-66
2021/10/31 06:49:50;;;;;;;24.80;17.10;;;9.60;99.90;;;;;;4953836;28;20055;-66
2021/10/31 06:52:17;;;;;;;23.02;16.27;;;9.60;99.90;;;;;;4952914;29;20510;-66
2021/10/31 06:54:45;;;;;;;24.17;16.40;;;9.70;99.90;;;;;;4952546;28;20051;-66
2021/10/31 06:57:12;;;;;;;22.60;16.42;;;9.80;99.90;;;;;;4953096;28;20114;-67
2021/10/31 06:59:39;;;;;;;21.65;15.52;;;9.90;99.90;;;;;;4953074;28;20113;-66
2021/10/31 07:02:07;;;;;;;22.38;16.33;;;9.90;99.90;;;;;;4946166;29;20043;-66
2021/10/31 07:04:34;;;;;;;21.20;15.52;;;10.00;99.90;;;;;;4953278;28;20051;-67
2021/10/31 07:07:02;;;;;;;23.20;16.42;;;10.00;99.90;;;;;;4949383;28;20051;-66
2021/10/31 07:09:30;;;;;;;24.25;16.67;;;10.10;99.90;;;;;;4952380;28;20044;-67
2021/10/31 07:11:59;;;;;;;22.00;15.75;;;10.20;99.90;;;;;;4942443;29;20050;-67
2021/10/31 07:14:26;;;;;;;27.27;18.48;;;10.30;99.90;;;;;;4951218;29;20043;-67
2021/10/31 07:16:53;;;;;;;27.98;19.38;;;10.40;99.90;;;;;;4951213;28;20047;-67
2021/10/31 07:19:20;;;;;;;27.52;18.13;;;10.50;99.90;;;;;;4938907;29;20061;-67
2021/10/31 07:21:48;;;;;;;22.23;16.02;;;10.50;99.90;;;;;;4952085;29;20414;-67
2021/10/31 07:24:15;;;;;;;22.00;15.55;;;10.60;99.90;;;;;;4944901;28;20047;-68
2021/10/31 07:26:42;;;;;;;23.75;15.43;;;10.60;99.90;;;;;;4949480;28;20047;-67
2021/10/31 07:29:10;;;;;;;25.77;16.88;;;10.70;99.90;;;;;;4948321;28;20069;-67
2021/10/31 07:31:39;;;;;;;24.83;16.30;;;10.80;99.90;;;;;;4953362;28;20055;-67
2021/10/31 07:34:11;;;;;;;21.60;15.77;;;10.80;99.90;;;;;;4943097;28;20509;-67
2021/10/31 07:36:39;;;;;;;24.67;16.50;;;10.90;99.90;;;;;;4948151;29;20043;-67
2021/10/31 07:39:09;;;;;;;23.10;15.88;;;11.00;99.90;;;;;;4958952;28;20043;-67
2021/10/31 07:41:38;;;;;;;25.40;16.90;;;11.10;99.90;;;;;;4946507;28;20482;-67
2021/10/31 07:44:08;;;;;;;26.30;17.02;;;11.10;99.90;;;;;;4953159;28;20069;-68
2021/10/31 07:46:35;;;;;;;22.55;16.30;;;11.30;99.90;;;;;;4946563;29;20039;-67
2021/10/31 07:49:03;;;;;;;20.23;15.32;;;11.40;99.90;;;;;;4951427;28;20055;-67
2021/10/31 07:51:30;;;;;;;35.55;20.48;;;11.50;99.90;;;;;;4957938;28;20055;-68
2021/10/31 07:53:58;;;;;;;25.77;18.98;;;11.60;99.90;;;;;;4954076;28;20490;-68
2021/10/31 07:56:27;;;;;;;25.65;17.48;;;11.70;99.90;;;;;;4953110;28;20062;-67
2021/10/31 07:58:57;;;;;;;23.02;16.50;;;11.70;99.90;;;;;;4951797;29;20051;-68
2021/10/31 08:01:25;;;;;;;24.33;17.52;;;11.80;99.90;;;;;;4949435;28;20058;-67
2021/10/31 08:03:53;;;;;;;25.58;17.40;;;12.00;99.90;;;;;;4953432;29;20054;-68
2021/10/31 08:06:22;;;;;;;25.83;18.60;;;12.00;99.90;;;;;;4951651;29;20498;-67
2021/10/31 08:08:49;;;;;;;26.15;16.17;;;12.10;99.90;;;;;;4945695;29;20046;-67
2021/10/31 08:11:17;;;;;;;24.80;16.65;;;12.20;99.90;;;;;;4937733;29;20054;-67
2021/10/31 08:13:45;;;;;;;22.08;16.15;;;12.20;99.90;;;;;;4940777;29;20050;-67
2021/10/31 08:16:13;;;;;;;25.60;16.00;;;12.20;99.90;;;;;;4940580;28;20422;-67
2021/10/31 08:18:40;;;;;;;23.00;16.80;;;12.30;99.90;;;;;;4929570;28;20071;-67
2021/10/31 08:21:09;;;;;;;21.83;15.93;;;12.40;99.90;;;;;;4936104;29;20418;-67
2021/10/31 08:23:38;;;;;;;22.75;15.07;;;12.50;99.90;;;;;;4957637;28;20057;-67
2021/10/31 08:26:06;;;;;;;21.88;16.35;;;12.70;99.90;;;;;;4951361;29;20040;-67
2021/10/31 08:28:36;;;;;;;20.63;14.57;;;12.70;99.90;;;;;;4955277;28;20043;-67
2021/10/31 08:31:04;;;;;;;24.95;18.77;;;12.80;99.90;;;;;;4947603;29;20506;-67
2021/10/31 08:33:34;;;;;;;25.75;18.08;;;12.90;99.90;;;;;;4957486;28;20122;-67
2021/10/31 08:36:05;;;;;;;22.52;15.63;;;13.10;99.90;;;;;;4942622;29;20402;-67
2021/10/31 08:38:32;;;;;;;21.30;15.82;;;13.20;99.90;;;;;;4952814;28;20042;-68
2021/10/31 08:41:00;;;;;;;19.58;15.10;;;13.30;99.90;;;;;;4941072;28;20043;-67
2021/10/31 08:43:29;;;;;;;20.83;15.85;;;13.40;99.90;;;;;;4944241;29;20039;-67
2021/10/31 08:45:57;;;;;;;20.02;14.48;;;13.50;99.90;;;;;;4955597;29;20051;-67
2021/10/31 08:48:24;;;;;;;19.17;13.65;;;13.70;99.90;;;;;;4955383;28;20126;-67
2021/10/31 08:50:52;;;;;;;20.13;14.63;;;13.80;99.90;;;;;;4939922;29;20450;-67
2021/10/31 08:53:26;;;;;;;19.63;14.57;;;14.00;99.90;;;;;;4944696;29;20087;-67
2021/10/31 08:55:55;;;;;;;17.17;12.32;;;14.10;99.90;;;;;;4953613;28;20051;-67
2021/10/31 08:58:22;;;;;;;19.15;13.68;;;14.20;99.90;;;;;;4954151;29;20047;-66
2021/10/31 09:00:50;;;;;;;18.88;13.43;;;14.40;99.90;;;;;;4952942;28;20502;-67
2021/10/31 09:03:18;;;;;;;21.25;14.20;;;14.60;99.90;;;;;;4949038;28;20052;-67
2021/10/31 09:05:46;;;;;;;17.13;12.48;;;14.70;99.90;;;;;;4955540;29;20051;-67
2021/10/31 09:08:14;;;;;;;18.30;13.02;;;14.90;99.90;;;;;;4953735;28;20043;-68
2021/10/31 09:10:41;;;;;;;17.85;13.90;;;15.00;99.90;;;;;;4953333;29;20514;-66
2021/10/31 09:13:09;;;;;;;18.95;12.35;;;15.10;99.90;;;;;;4952881;28;20050;-67
2021/10/31 09:15:36;;;;;;;18.95;12.35;;;15.30;99.90;;;;;;4953640;28;20043;-67
2021/10/31 09:18:04;;;;;;;16.95;12.65;;;15.40;99.90;;;;;;4941208;29;20043;-67
2021/10/31 09:20:34;;;;;;;17.65;12.30;;;15.60;99.90;;;;;;4954806;28;20051;-67
2021/10/31 09:23:04;;;;;;;15.00;11.25;;;15.70;99.90;;;;;;4955829;28;20054;-67
2021/10/31 09:25:32;;;;;;;15.25;11.07;;;16.00;99.90;;;;;;4952867;28;20078;-68
2021/10/31 09:28:01;;;;;;;15.60;11.60;;;16.10;99.90;;;;;;4942619;28;20051;-67
2021/10/31 09:30:33;;;;;;;16.13;11.32;;;16.30;99.90;;;;;;4938761;29;20072;-67
2021/10/31 09:33:01;;;;;;;14.07;9.97;;;16.40;99.90;;;;;;4942534;29;20043;-68
2021/10/31 09:35:30;;;;;;;13.65;10.45;;;16.50;99.90;;;;;;4943821;28;20047;-67
2021/10/31 09:38:04;;;;;;;15.77;10.88;;;16.60;99.90;;;;;;4958801;28;20062;-67
2021/10/31 09:40:33;;;;;;;12.07;9.15;;;16.80;99.90;;;;;;4944013;29;20477;-68
2021/10/31 09:43:02;;;;;;;14.20;10.27;;;16.90;99.90;;;;;;4938559;28;20044;-67
2021/10/31 09:45:32;;;;;;;16.73;11.88;;;17.20;99.90;;;;;;4936234;29;20075;-68
2021/10/31 09:48:05;;;;;;;13.82;10.10;;;17.30;99.90;;;;;;4942301;29;20517;-68
2021/10/31 09:50:36;;;;;;;15.48;11.15;;;17.50;99.90;;;;;;4941716;29;20056;-68
2021/10/31 09:53:04;;;;;;;13.23;9.07;;;17.60;99.90;;;;;;4946187;28;20131;-68
2021/10/31 09:55:33;;;;;;;15.85;9.70;;;17.50;99.90;;;;;;4944655;29;20040;-68
2021/10/31 09:58:03;;;;;;;14.18;9.65;;;17.50;99.90;;;;;;4937919;28;20043;-68
2021/10/31 10:00:35;;;;;;;13.88;9.80;;;17.60;99.90;;;;;;4945117;28;20047;-68
2021/10/31 10:03:34;;;;;;;13.02;8.95;;;17.70;99.90;;;;;;4944479;28;20043;-68
2021/10/31 10:06:16;;;;;;;11.88;8.52;;;17.70;99.90;;;;;;4942987;28;20039;-68
2021/10/31 10:09:08;;;;;;;9.77;7.93;;;18.00;99.90;;;;;;4950455;28;20047;-68
2021/10/31 10:11:40;;;;;;;12.55;8.68;;;18.10;99.90;;;;;;4953816;29;20042;-68
2021/10/31 10:14:13;;;;;;;11.02;8.35;;;18.30;99.90;;;;;;4965017;28;20395;-68
2021/10/31 10:16:42;;;;;;;10.77;7.75;;;18.40;99.90;;;;;;4953922;28;20509;-68
2021/10/31 10:19:21;;;;;;;9.55;7.50;;;18.50;99.90;;;;;;4950543;28;20392;-68
2021/10/31 10:21:53;;;;;;;10.27;7.75;;;18.70;99.90;;;;;;4948921;28;20051;-68
2021/10/31 10:24:23;;;;;;;12.85;8.07;;;18.90;99.90;;;;;;4941016;28;20059;-68
2021/10/31 10:26:54;;;;;;;10.43;7.18;;;19.00;99.90;;;;;;4946746;28;20051;-68
2021/10/31 10:29:27;;;;;;;10.82;8.00;;;19.60;99.90;;;;;;4952186;28;20046;-68
2021/10/31 10:32:00;;;;;;;11.60;7.95;;;21.00;99.90;;;;;;4952496;28;20043;-68
2021/10/31 10:34:37;;;;;;;11.55;7.30;;;22.50;99.90;;;;;;4952741;28;20513;-68
2021/10/31 10:37:11;;;;;;;10.13;7.45;;;23.70;99.90;;;;;;4957272;28;20595;-68
2021/10/31 10:39:40;;;;;;;8.57;6.22;;;24.80;99.90;;;;;;4953361;28;20449;-67
2021/10/31 10:42:09;;;;;;;9.02;6.20;;;24.90;99.90;;;;;;4952313;28;20051;-68
2021/10/31 10:44:38;;;;;;;8.93;6.40;;;25.20;99.90;;;;;;4953084;29;20047;-67
2021/10/31 10:47:09;;;;;;;8.32;5.97;;;25.00;99.90;;;;;;4954192;28;20631;-67
2021/10/31 10:49:40;;;;;;;9.13;6.20;;;24.90;99.90;;;;;;4947945;29;20050;-67
2021/10/31 10:52:23;;;;;;;15.55;10.57;;;25.10;99.90;;;;;;4952512;28;20046;-69
2021/10/31 10:54:50;;;;;;;11.60;8.73;;;25.60;99.90;;;;;;4952849;29;20055;-69
2021/10/31 10:57:19;;;;;;;8.77;6.20;;;26.30;99.90;;;;;;4952577;29;20050;-69
2021/10/31 10:59:57;;;;;;;12.27;7.05;;;26.50;99.90;;;;;;4952886;28;20127;-68
2021/10/31 11:02:27;;;;;;;11.43;9.02;;;26.60;99.90;;;;;;4951597;29;20043;-68
2021/10/31 11:04:58;;;;;;;7.78;5.90;;;26.60;99.90;;;;;;4952059;28;20043;-68
2021/10/31 11:07:46;;;;;;;13.95;9.60;;;26.60;99.90;;;;;;4952031;29;20043;-67
2021/10/31 11:10:22;;;;;;;7.80;5.35;;;26.50;99.90;;;;;;4947286;29;20052;-68
2021/10/31 11:12:53;;;;;;;8.25;5.10;;;26.50;99.90;;;;;;4952300;29;20679;-68
2021/10/31 11:15:23;;;;;;;7.32;4.68;;;26.20;99.90;;;;;;4945152;29;20055;-68
2021/10/31 11:17:53;;;;;;;6.38;4.72;;;26.00;99.90;;;;;;4952824;28;20039;-68
2021/10/31 11:20:27;;;;;;;7.90;4.63;;;25.90;99.90;;;;;;4943098;29;20410;-68
2021/10/31 11:22:58;;;;;;;7.70;5.15;;;26.00;99.90;;;;;;4952350;28;20051;-68
2021/10/31 11:25:29;;;;;;;7.63;4.93;;;25.90;99.40;;;;;;4953437;28;20102;-68
2021/10/31 11:27:59;;;;;;;9.50;6.85;;;26.00;99.50;;;;;;4952745;28;20043;-68
2021/10/31 11:30:29;;;;;;;13.13;9.57;;;25.90;99.10;;;;;;4959521;28;20054;-67
2021/10/31 11:32:58;;;;;;;10.27;7.40;;;25.90;98.70;;;;;;4953951;28;20294;-67
2021/10/31 11:35:26;;;;;;;8.63;5.75;;;25.70;98.80;;;;;;4955198;28;20039;-67
2021/10/31 11:38:05;;;;;;;9.35;5.88;;;25.80;98.50;;;;;;4955791;28;20061;-67
2021/10/31 11:40:39;;;;;;;11.15;6.82;;;25.80;98.40;;;;;;4950539;29;20410;-68
2021/10/31 11:43:24;;;;;;;10.50;7.20;;;25.80;98.30;;;;;;4953406;28;20122;-68
2021/10/31 11:45:54;;;;;;;10.20;7.05;;;26.00;98.30;;;;;;4954650;28;20074;-68
2021/10/31 11:48:24;;;;;;;8.90;6.25;;;26.30;98.10;;;;;;4958760;28;20135;-67
2021/10/31 11:51:06;;;;;;;9.50;6.70;;;26.20;97.60;;;;;;4955716;28;20035;-68
2021/10/31 11:53:47;;;;;;;11.82;8.40;;;26.60;97.60;;;;;;4956445;28;20427;-68
2021/10/31 11:56:25;;;;;;;14.63;10.45;;;26.90;96.90;;;;;;4954624;29;20054;-68
2021/10/31 11:59:01;;;;;;;19.95;12.52;;;27.10;97.00;;;;;;4953866;29;20760;-68
2021/10/31 12:01:34;;;;;;;15.32;10.43;;;27.50;96.70;;;;;;4955190;29;20106;-68
2021/10/31 12:04:10;;;;;;;15.90;10.07;;;28.80;95.90;;;;;;4951988;28;20410;-68
2021/10/31 12:06:45;;;;;;;19.90;13.32;;;30.40;94.30;;;;;;4956031;28;20051;-68
2021/10/31 12:09:24;;;;;;;19.70;13.20;;;32.00;92.20;;;;;;4952274;28;20487;-68
2021/10/31 12:11:56;;;;;;;9.50;6.47;;;33.40;89.70;;;;;;4954668;29;20053;-68
2021/10/31 12:14:45;;;;;;;8.13;5.47;;;34.60;85.60;;;;;;4950224;29;20070;-68
2021/10/31 12:17:12;;;;;;;7.97;4.85;;;35.10;80.60;;;;;;4954803;28;20051;-68
2021/10/31 12:19:41;;;;;;;6.70;4.60;;;36.10;77.40;;;;;;4954159;29;20039;-68
2021/10/31 12:22:10;;;;;;;6.30;4.72;;;35.70;75.30;;;;;;4955700;28;20050;-68
2021/10/31 12:24:40;;;;;;;5.22;4.13;;;36.10;73.60;;;;;;4953133;28;20050;-68
2021/10/31 12:27:16;;;;;;;12.50;6.10;;;36.30;72.60;;;;;;4954312;28;20051;-69
2021/10/31 12:29:50;;;;;;;14.77;8.48;;;37.30;70.40;;;;;;4952553;29;20047;-69
2021/10/31 12:32:20;;;;;;;11.13;7.22;;;38.30;67.60;;;;;;4930341;28;20062;-69
2021/10/31 12:34:53;;;;;;;8.18;4.32;;;38.70;65.50;;;;;;4954619;29;20478;-69
2021/10/31 12:37:23;;;;;;;6.28;5.47;;;38.90;63.90;;;;;;4953433;28;20513;-68
2021/10/31 12:40:12;;;;;;;5.80;3.83;;;38.90;62.30;;;;;;4962663;28;20028;-68
2021/10/31 12:42:58;;;;;;;6.00;3.90;;;38.60;61.60;;;;;;4957188;28;20071;-68
2021/10/31 12:45:27;;;;;;;5.75;3.80;;;38.50;60.30;;;;;;4937897;28;20051;-69
2021/10/31 12:48:08;;;;;;;6.20;4.10;;;38.60;59.90;;;;;;4950218;28;20506;-69
2021/10/31 12:50:36;;;;;;;6.22;4.70;;;38.50;59.60;;;;;;4952942;28;20415;-68
2021/10/31 12:53:09;;;;;;;7.28;5.10;;;38.70;58.60;;;;;;4953290;28;20054;-68